Terminal Aerodrome Forecast
Issued by NWS

Current Version | Previous Version | Graphics & Text | Print | Product List | Glossary On
Versions: 1 2 3 4 5 6 7 8 9 10 11 12 13 14 15 16 17 18 19 20 21 22 23 24 25
286
FTUS41 KRLX 301453 AAA
TAFCKB
TAF AMD
KCKB 301453Z 3015/0112 00000KT P6SM BKN110
     FM302100 VRB02KT P6SM OVC026
     FM302200 00000KT 5SM SHRA OVC026
     FM302300 14004KT 5SM -SHRA OVC017
     FM010300 14006KT P6SM OVC014=

USA.gov is the U.S. government's official web portal to all federal, state and local government web resources and services.